sensor_id;sensor_type;location;lat;lon;timestamp;P1;durP1;ratioP1;P2;durP2;ratioP2
71484;SDS011;59300;52.074;4.758;2022-11-21T00:00:53;79.57;;;31.80;;
71484;SDS011;59300;52.074;4.758;2022-11-21T00:03:55;85.65;;;30.95;;
71484;SDS011;59300;52.074;4.758;2022-11-21T00:06:56;95.75;;;33.15;;
71484;SDS011;59300;52.074;4.758;2022-11-21T00:09:58;101.35;;;32.25;;
71484;SDS011;59300;52.074;4.758;2022-11-21T00:12:59;107.88;;;35.53;;
71484;SDS011;59300;52.074;4.758;2022-11-21T00:16:04;95.60;;;32.80;;
71484;SDS011;59300;52.074;4.758;2022-11-21T00:19:07;93.68;;;33.10;;
71484;SDS011;59300;52.074;4.758;2022-11-21T00:22:09;88.63;;;32.15;;
71484;SDS011;59300;52.074;4.758;2022-11-21T00:25:10;101.70;;;33.83;;
71484;SDS011;59300;52.074;4.758;2022-11-21T00:28:12;104.20;;;32.75;;
71484;SDS011;59300;52.074;4.758;2022-11-21T00:31:20;92.50;;;31.35;;
71484;SDS011;59300;52.074;4.758;2022-11-21T00:34:23;98.63;;;34.28;;
71484;SDS011;59300;52.074;4.758;2022-11-21T00:37:25;98.47;;;32.47;;
71484;SDS011;59300;52.074;4.758;2022-11-21T00:40:26;93.60;;;32.20;;
71484;SDS011;59300;52.074;4.758;2022-11-21T00:43:28;92.65;;;31.58;;
71484;SDS011;59300;52.074;4.758;2022-11-21T00:46:29;98.10;;;33.03;;
71484;SDS011;59300;52.074;4.758;2022-11-21T00:49:31;111.82;;;32.42;;
71484;SDS011;59300;52.074;4.758;2022-11-21T00:52:32;87.55;;;32.30;;
71484;SDS011;59300;52.074;4.758;2022-11-21T00:55:34;84.70;;;31.52;;
71484;SDS011;59300;52.074;4.758;2022-11-21T00:58:35;87.43;;;30.30;;
71484;SDS011;59300;52.074;4.758;2022-11-21T01:01:37;90.38;;;29.17;;
71484;SDS011;59300;52.074;4.758;2022-11-21T01:04:38;76.78;;;25.30;;
71484;SDS011;59300;52.074;4.758;2022-11-21T01:07:40;84.55;;;28.88;;
71484;SDS011;59300;52.074;4.758;2022-11-21T01:10:41;94.10;;;30.73;;
71484;SDS011;59300;52.074;4.758;2022-11-21T01:13:43;86.68;;;28.73;;
71484;SDS011;59300;52.074;4.758;2022-11-21T01:16:45;92.95;;;29.35;;
71484;SDS011;59300;52.074;4.758;2022-11-21T01:19:46;107.20;;;29.65;;
71484;SDS011;59300;52.074;4.758;2022-11-21T01:22:48;104.45;;;28.05;;
71484;SDS011;59300;52.074;4.758;2022-11-21T01:25:49;91.10;;;29.27;;
71484;SDS011;59300;52.074;4.758;2022-11-21T01:28:51;89.70;;;29.08;;
71484;SDS011;59300;52.074;4.758;2022-11-21T01:31:53;105.53;;;31.00;;
71484;SDS011;59300;52.074;4.758;2022-11-21T01:34:54;118.28;;;31.50;;
71484;SDS011;59300;52.074;4.758;2022-11-21T01:37:56;110.82;;;31.80;;
71484;SDS011;59300;52.074;4.758;2022-11-21T01:40:57;113.32;;;29.30;;
71484;SDS011;59300;52.074;4.758;2022-11-21T01:43:59;112.68;;;30.92;;
71484;SDS011;59300;52.074;4.758;2022-11-21T01:47:09;119.35;;;32.25;;
71484;SDS011;59300;52.074;4.758;2022-11-21T01:50:11;104.90;;;30.88;;
71484;SDS011;59300;52.074;4.758;2022-11-21T01:53:13;135.13;;;32.00;;
71484;SDS011;59300;52.074;4.758;2022-11-21T01:56:14;120.40;;;32.83;;
71484;SDS011;59300;52.074;4.758;2022-11-21T01:59:21;109.75;;;31.98;;
71484;SDS011;59300;52.074;4.758;2022-11-21T02:02:28;138.80;;;33.63;;
71484;SDS011;59300;52.074;4.758;2022-11-21T02:05:34;113.80;;;33.53;;
71484;SDS011;59300;52.074;4.758;2022-11-21T02:08:36;117.03;;;31.45;;
71484;SDS011;59300;52.074;4.758;2022-11-21T02:11:39;156.50;;;32.58;;
71484;SDS011;59300;52.074;4.758;2022-11-21T02:14:45;128.93;;;32.45;;
71484;SDS011;59300;52.074;4.758;2022-11-21T02:17:47;134.98;;;32.60;;
71484;SDS011;59300;52.074;4.758;2022-11-21T02:20:50;173.93;;;32.72;;
71484;SDS011;59300;52.074;4.758;2022-11-21T02:23:58;148.45;;;32.55;;
71484;SDS011;59300;52.074;4.758;2022-11-21T02:27:05;177.45;;;32.13;;
71484;SDS011;59300;52.074;4.758;2022-11-21T02:30:07;193.88;;;31.58;;
71484;SDS011;59300;52.074;4.758;2022-11-21T02:33:11;146.43;;;30.00;;
71484;SDS011;59300;52.074;4.758;2022-11-21T02:36:26;136.50;;;31.10;;
71484;SDS011;59300;52.074;4.758;2022-11-21T02:39:32;109.43;;;26.55;;
71484;SDS011;59300;52.074;4.758;2022-11-21T02:42:48;112.47;;;28.73;;
71484;SDS011;59300;52.074;4.758;2022-11-21T02:46:14;103.75;;;30.38;;
71484;SDS011;59300;52.074;4.758;2022-11-21T02:49:30;173.98;;;30.95;;
71484;SDS011;59300;52.074;4.758;2022-11-21T02:52:39;101.05;;;28.48;;
71484;SDS011;59300;52.074;4.758;2022-11-21T02:55:42;104.85;;;30.35;;
71484;SDS011;59300;52.074;4.758;2022-11-21T02:58:43;127.63;;;29.65;;
71484;SDS011;59300;52.074;4.758;2022-11-21T03:01:45;101.20;;;28.30;;
71484;SDS011;59300;52.074;4.758;2022-11-21T03:04:46;132.35;;;32.20;;
71484;SDS011;59300;52.074;4.758;2022-11-21T03:07:48;147.40;;;33.10;;
71484;SDS011;59300;52.074;4.758;2022-11-21T03:10:49;149.98;;;33.97;;
71484;SDS011;59300;52.074;4.758;2022-11-21T03:13:51;135.50;;;33.08;;
71484;SDS011;59300;52.074;4.758;2022-11-21T03:16:52;134.25;;;32.90;;
71484;SDS011;59300;52.074;4.758;2022-11-21T03:19:54;126.93;;;32.17;;
71484;SDS011;59300;52.074;4.758;2022-11-21T03:22:55;129.18;;;30.83;;
71484;SDS011;59300;52.074;4.758;2022-11-21T03:25:57;111.25;;;30.95;;
71484;SDS011;59300;52.074;4.758;2022-11-21T03:28:59;149.70;;;30.55;;
71484;SDS011;59300;52.074;4.758;2022-11-21T03:32:01;149.40;;;31.90;;
71484;SDS011;59300;52.074;4.758;2022-11-21T03:35:03;201.50;;;35.58;;
71484;SDS011;59300;52.074;4.758;2022-11-21T03:38:05;218.50;;;35.60;;
71484;SDS011;59300;52.074;4.758;2022-11-21T03:41:07;169.60;;;31.58;;
71484;SDS011;59300;52.074;4.758;2022-11-21T03:44:09;236.60;;;33.65;;
71484;SDS011;59300;52.074;4.758;2022-11-21T03:47:12;115.70;;;30.67;;
71484;SDS011;59300;52.074;4.758;2022-11-21T03:50:13;237.00;;;32.03;;
71484;SDS011;59300;52.074;4.758;2022-11-21T03:53:15;139.07;;;32.58;;
71484;SDS011;59300;52.074;4.758;2022-11-21T03:56:16;199.73;;;32.42;;
71484;SDS011;59300;52.074;4.758;2022-11-21T03:59:18;350.23;;;34.95;;
71484;SDS011;59300;52.074;4.758;2022-11-21T04:02:19;274.73;;;33.92;;
71484;SDS011;59300;52.074;4.758;2022-11-21T04:05:21;190.60;;;33.58;;
71484;SDS011;59300;52.074;4.758;2022-11-21T04:08:22;213.45;;;35.13;;
71484;SDS011;59300;52.074;4.758;2022-11-21T04:11:24;141.18;;;31.75;;
71484;SDS011;59300;52.074;4.758;2022-11-21T04:14:26;237.43;;;34.05;;
71484;SDS011;59300;52.074;4.758;2022-11-21T04:17:28;213.40;;;34.45;;
71484;SDS011;59300;52.074;4.758;2022-11-21T04:20:29;164.77;;;31.23;;
71484;SDS011;59300;52.074;4.758;2022-11-21T04:23:30;162.32;;;32.03;;
71484;SDS011;59300;52.074;4.758;2022-11-21T04:26:32;227.52;;;34.85;;
71484;SDS011;59300;52.074;4.758;2022-11-21T04:29:34;190.05;;;33.92;;
71484;SDS011;59300;52.074;4.758;2022-11-21T04:32:35;161.60;;;34.00;;
71484;SDS011;59300;52.074;4.758;2022-11-21T04:35:37;211.25;;;33.92;;
71484;SDS011;59300;52.074;4.758;2022-11-21T04:38:38;198.65;;;36.92;;
71484;SDS011;59300;52.074;4.758;2022-11-21T04:41:39;146.23;;;33.33;;
71484;SDS011;59300;52.074;4.758;2022-11-21T04:44:41;152.35;;;35.05;;
71484;SDS011;59300;52.074;4.758;2022-11-21T04:47:43;225.73;;;36.35;;
71484;SDS011;59300;52.074;4.758;2022-11-21T04:50:46;279.73;;;40.95;;
71484;SDS011;59300;52.074;4.758;2022-11-21T04:53:47;230.70;;;37.42;;
71484;SDS011;59300;52.074;4.758;2022-11-21T04:56:49;242.18;;;40.15;;
71484;SDS011;59300;52.074;4.758;2022-11-21T04:59:50;253.45;;;39.80;;
71484;SDS011;59300;52.074;4.758;2022-11-21T05:02:51;244.93;;;41.03;;
71484;SDS011;59300;52.074;4.758;2022-11-21T05:05:53;205.35;;;38.10;;
71484;SDS011;59300;52.074;4.758;2022-11-21T05:08:54;177.70;;;36.17;;
71484;SDS011;59300;52.074;4.758;2022-11-21T05:11:56;155.93;;;34.70;;
71484;SDS011;59300;52.074;4.758;2022-11-21T05:14:57;154.75;;;34.45;;
71484;SDS011;59300;52.074;4.758;2022-11-21T05:17:59;161.13;;;33.92;;
71484;SDS011;59300;52.074;4.758;2022-11-21T05:21:00;202.68;;;34.60;;
71484;SDS011;59300;52.074;4.758;2022-11-21T05:24:02;232.52;;;35.65;;
71484;SDS011;59300;52.074;4.758;2022-11-21T05:27:04;199.27;;;35.53;;
71484;SDS011;59300;52.074;4.758;2022-11-21T05:30:06;251.98;;;37.60;;
71484;SDS011;59300;52.074;4.758;2022-11-21T05:33:08;279.27;;;37.67;;
71484;SDS011;59300;52.074;4.758;2022-11-21T05:36:09;182.88;;;32.45;;
71484;SDS011;59300;52.074;4.758;2022-11-21T05:39:10;229.32;;;34.33;;
71484;SDS011;59300;52.074;4.758;2022-11-21T05:42:12;358.20;;;35.85;;
71484;SDS011;59300;52.074;4.758;2022-11-21T05:45:13;181.45;;;33.22;;
71484;SDS011;59300;52.074;4.758;2022-11-21T05:48:15;259.92;;;36.03;;
71484;SDS011;59300;52.074;4.758;2022-11-21T05:51:17;140.25;;;30.30;;
71484;SDS011;59300;52.074;4.758;2022-11-21T05:54:19;322.10;;;36.70;;
71484;SDS011;59300;52.074;4.758;2022-11-21T05:57:21;255.68;;;35.67;;
71484;SDS011;59300;52.074;4.758;2022-11-21T06:00:22;200.85;;;33.15;;
71484;SDS011;59300;52.074;4.758;2022-11-21T06:03:24;238.10;;;33.65;;
71484;SDS011;59300;52.074;4.758;2022-11-21T06:06:27;226.80;;;34.05;;
71484;SDS011;59300;52.074;4.758;2022-11-21T06:09:28;242.40;;;35.47;;
71484;SDS011;59300;52.074;4.758;2022-11-21T06:12:30;210.35;;;33.35;;
71484;SDS011;59300;52.074;4.758;2022-11-21T06:15:31;217.38;;;35.17;;
71484;SDS011;59300;52.074;4.758;2022-11-21T06:18:33;129.27;;;30.52;;
71484;SDS011;59300;52.074;4.758;2022-11-21T06:24:38;242.57;;;32.10;;
71484;SDS011;59300;52.074;4.758;2022-11-21T06:27:39;168.00;;;32.88;;
71484;SDS011;59300;52.074;4.758;2022-11-21T06:30:41;241.70;;;34.10;;
71484;SDS011;59300;52.074;4.758;2022-11-21T06:33:43;262.80;;;34.67;;
71484;SDS011;59300;52.074;4.758;2022-11-21T06:36:45;168.43;;;31.98;;
71484;SDS011;59300;52.074;4.758;2022-11-21T06:39:46;192.30;;;32.17;;
71484;SDS011;59300;52.074;4.758;2022-11-21T06:42:47;242.98;;;33.25;;
71484;SDS011;59300;52.074;4.758;2022-11-21T06:45:50;197.52;;;33.55;;
71484;SDS011;59300;52.074;4.758;2022-11-21T06:48:52;256.70;;;35.67;;
71484;SDS011;59300;52.074;4.758;2022-11-21T06:54:57;265.75;;;34.58;;
71484;SDS011;59300;52.074;4.758;2022-11-21T06:57:59;184.85;;;32.58;;
71484;SDS011;59300;52.074;4.758;2022-11-21T07:01:04;270.17;;;35.15;;
71484;SDS011;59300;52.074;4.758;2022-11-21T07:04:10;233.60;;;35.67;;
71484;SDS011;59300;52.074;4.758;2022-11-21T07:07:11;228.77;;;35.17;;
71484;SDS011;59300;52.074;4.758;2022-11-21T07:10:13;217.48;;;35.08;;
71484;SDS011;59300;52.074;4.758;2022-11-21T07:13:14;199.15;;;35.20;;
71484;SDS011;59300;52.074;4.758;2022-11-21T07:16:16;212.90;;;35.15;;
71484;SDS011;59300;52.074;4.758;2022-11-21T07:19:17;216.35;;;32.75;;
71484;SDS011;59300;52.074;4.758;2022-11-21T07:22:19;182.23;;;33.92;;
71484;SDS011;59300;52.074;4.758;2022-11-21T07:25:20;173.75;;;32.55;;
71484;SDS011;59300;52.074;4.758;2022-11-21T07:28:22;152.02;;;33.30;;
71484;SDS011;59300;52.074;4.758;2022-11-21T07:31:24;156.05;;;32.80;;
71484;SDS011;59300;52.074;4.758;2022-11-21T07:34:25;144.27;;;30.80;;
71484;SDS011;59300;52.074;4.758;2022-11-21T07:37:27;159.32;;;31.88;;
71484;SDS011;59300;52.074;4.758;2022-11-21T07:40:28;129.70;;;30.52;;
71484;SDS011;59300;52.074;4.758;2022-11-21T07:43:30;138.35;;;31.77;;
71484;SDS011;59300;52.074;4.758;2022-11-21T07:46:31;145.30;;;33.13;;
71484;SDS011;59300;52.074;4.758;2022-11-21T07:49:33;128.35;;;31.58;;
71484;SDS011;59300;52.074;4.758;2022-11-21T07:52:34;140.13;;;32.13;;
71484;SDS011;59300;52.074;4.758;2022-11-21T07:55:37;139.45;;;32.72;;
71484;SDS011;59300;52.074;4.758;2022-11-21T08:01:43;127.43;;;28.85;;
71484;SDS011;59300;52.074;4.758;2022-11-21T08:04:49;121.45;;;29.88;;
71484;SDS011;59300;52.074;4.758;2022-11-21T08:07:50;129.68;;;29.38;;
71484;SDS011;59300;52.074;4.758;2022-11-21T08:10:52;120.68;;;27.55;;
71484;SDS011;59300;52.074;4.758;2022-11-21T08:13:53;134.70;;;28.73;;
71484;SDS011;59300;52.074;4.758;2022-11-21T08:16:54;127.60;;;28.42;;
71484;SDS011;59300;52.074;4.758;2022-11-21T08:19:56;159.23;;;31.02;;
71484;SDS011;59300;52.074;4.758;2022-11-21T08:22:57;146.45;;;30.30;;
71484;SDS011;59300;52.074;4.758;2022-11-21T08:25:59;133.23;;;30.15;;
71484;SDS011;59300;52.074;4.758;2022-11-21T08:29:01;124.57;;;30.40;;
71484;SDS011;59300;52.074;4.758;2022-11-21T08:32:02;202.93;;;32.28;;
71484;SDS011;59300;52.074;4.758;2022-11-21T08:35:04;139.52;;;28.30;;
71484;SDS011;59300;52.074;4.758;2022-11-21T08:38:06;272.08;;;32.42;;
71484;SDS011;59300;52.074;4.758;2022-11-21T08:41:09;160.98;;;27.33;;
71484;SDS011;59300;52.074;4.758;2022-11-21T08:44:17;290.52;;;31.25;;
71484;SDS011;59300;52.074;4.758;2022-11-21T08:47:19;203.45;;;30.77;;
71484;SDS011;59300;52.074;4.758;2022-11-21T08:50:21;158.10;;;28.05;;
71484;SDS011;59300;52.074;4.758;2022-11-21T08:53:23;178.57;;;28.20;;
71484;SDS011;59300;52.074;4.758;2022-11-21T08:56:24;134.88;;;27.55;;
71484;SDS011;59300;52.074;4.758;2022-11-21T08:59:26;189.48;;;28.90;;
71484;SDS011;59300;52.074;4.758;2022-11-21T09:02:28;122.20;;;25.63;;
71484;SDS011;59300;52.074;4.758;2022-11-21T09:05:29;142.02;;;27.63;;
71484;SDS011;59300;52.074;4.758;2022-11-21T09:08:31;169.45;;;26.30;;
71484;SDS011;59300;52.074;4.758;2022-11-21T09:11:32;167.18;;;26.55;;
71484;SDS011;59300;52.074;4.758;2022-11-21T09:14:34;224.60;;;27.27;;
71484;SDS011;59300;52.074;4.758;2022-11-21T09:17:35;181.05;;;26.30;;
71484;SDS011;59300;52.074;4.758;2022-11-21T09:20:39;152.52;;;25.20;;
71484;SDS011;59300;52.074;4.758;2022-11-21T09:23:42;134.20;;;24.27;;
71484;SDS011;59300;52.074;4.758;2022-11-21T09:26:43;106.85;;;23.92;;
71484;SDS011;59300;52.074;4.758;2022-11-21T09:29:45;55.47;;;22.98;;
71484;SDS011;59300;52.074;4.758;2022-11-21T09:32:58;57.05;;;22.42;;
71484;SDS011;59300;52.074;4.758;2022-11-21T09:36:07;59.97;;;21.85;;
71484;SDS011;59300;52.074;4.758;2022-11-21T09:39:08;52.35;;;22.42;;
71484;SDS011;59300;52.074;4.758;2022-11-21T09:42:29;48.42;;;22.20;;
71484;SDS011;59300;52.074;4.758;2022-11-21T09:45:45;56.95;;;22.45;;
71484;SDS011;59300;52.074;4.758;2022-11-21T09:51:54;65.47;;;25.98;;
71484;SDS011;59300;52.074;4.758;2022-11-21T09:54:58;68.68;;;26.10;;
71484;SDS011;59300;52.074;4.758;2022-11-21T10:01:31;73.68;;;27.48;;
71484;SDS011;59300;52.074;4.758;2022-11-21T10:04:33;67.53;;;27.88;;
71484;SDS011;59300;52.074;4.758;2022-11-21T10:07:34;70.03;;;27.02;;
71484;SDS011;59300;52.074;4.758;2022-11-21T10:23:49;52.90;;;21.60;;
71484;SDS011;59300;52.074;4.758;2022-11-21T10:27:17;49.78;;;20.17;;
71484;SDS011;59300;52.074;4.758;2022-11-21T10:30:29;41.00;;;18.15;;
71484;SDS011;59300;52.074;4.758;2022-11-21T10:33:32;34.50;;;16.83;;
71484;SDS011;59300;52.074;4.758;2022-11-21T10:36:38;39.03;;;15.35;;
71484;SDS011;59300;52.074;4.758;2022-11-21T10:39:48;30.33;;;14.27;;
71484;SDS011;59300;52.074;4.758;2022-11-21T10:42:56;28.33;;;13.40;;
71484;SDS011;59300;52.074;4.758;2022-11-21T10:46:01;23.73;;;11.98;;
71484;SDS011;59300;52.074;4.758;2022-11-21T10:49:03;24.75;;;11.88;;
71484;SDS011;59300;52.074;4.758;2022-11-21T10:52:12;30.02;;;11.73;;
71484;SDS011;59300;52.074;4.758;2022-11-21T10:55:19;23.30;;;10.90;;
71484;SDS011;59300;52.074;4.758;2022-11-21T10:58:27;27.25;;;10.60;;
71484;SDS011;59300;52.074;4.758;2022-11-21T11:01:35;19.38;;;9.82;;
71484;SDS011;59300;52.074;4.758;2022-11-21T11:04:36;19.35;;;10.15;;
71484;SDS011;59300;52.074;4.758;2022-11-21T11:07:57;20.67;;;9.25;;
71484;SDS011;59300;52.074;4.758;2022-11-21T11:11:08;17.30;;;8.27;;
71484;SDS011;59300;52.074;4.758;2022-11-21T11:14:15;12.10;;;6.90;;
71484;SDS011;59300;52.074;4.758;2022-11-21T11:17:32;20.25;;;7.35;;
71484;SDS011;59300;52.074;4.758;2022-11-21T11:23:40;18.58;;;7.82;;
71484;SDS011;59300;52.074;4.758;2022-11-21T11:29:49;17.25;;;7.70;;
71484;SDS011;59300;52.074;4.758;2022-11-21T11:32:51;15.63;;;6.72;;
71484;SDS011;59300;52.074;4.758;2022-11-21T11:35:53;13.93;;;7.00;;
71484;SDS011;59300;52.074;4.758;2022-11-21T11:39:15;19.38;;;7.35;;
71484;SDS011;59300;52.074;4.758;2022-11-21T11:42:22;21.33;;;7.35;;
71484;SDS011;59300;52.074;4.758;2022-11-21T11:49:34;17.08;;;8.13;;
71484;SDS011;59300;52.074;4.758;2022-11-21T11:52:42;15.88;;;7.40;;
71484;SDS011;59300;52.074;4.758;2022-11-21T11:55:51;16.50;;;7.40;;
71484;SDS011;59300;52.074;4.758;2022-11-21T11:59:01;22.42;;;8.05;;
71484;SDS011;59300;52.074;4.758;2022-11-21T12:02:22;11.15;;;6.53;;
71484;SDS011;59300;52.074;4.758;2022-11-21T12:05:29;16.90;;;6.90;;
71484;SDS011;59300;52.074;4.758;2022-11-21T12:08:39;16.88;;;7.07;;
71484;SDS011;59300;52.074;4.758;2022-11-21T12:11:50;14.20;;;6.63;;
71484;SDS011;59300;52.074;4.758;2022-11-21T12:21:19;15.20;;;7.15;;
71484;SDS011;59300;52.074;4.758;2022-11-21T12:24:22;16.15;;;6.97;;
71484;SDS011;59300;52.074;4.758;2022-11-21T12:27:27;13.43;;;6.60;;
71484;SDS011;59300;52.074;4.758;2022-11-21T12:33:53;10.20;;;5.80;;
71484;SDS011;59300;52.074;4.758;2022-11-21T12:43:36;14.82;;;5.28;;
71484;SDS011;59300;52.074;4.758;2022-11-21T12:46:46;16.15;;;5.78;;
71484;SDS011;59300;52.074;4.758;2022-11-21T12:50:22;17.52;;;5.15;;
71484;SDS011;59300;52.074;4.758;2022-11-21T13:06:31;10.45;;;4.18;;
71484;SDS011;59300;52.074;4.758;2022-11-21T13:09:39;8.30;;;3.92;;
71484;SDS011;59300;52.074;4.758;2022-11-21T13:12:45;7.22;;;4.18;;
71484;SDS011;59300;52.074;4.758;2022-11-21T13:15:56;6.78;;;3.90;;
71484;SDS011;59300;52.074;4.758;2022-11-21T13:19:15;9.55;;;3.70;;
71484;SDS011;59300;52.074;4.758;2022-11-21T13:22:55;9.82;;;4.00;;
71484;SDS011;59300;52.074;4.758;2022-11-21T13:25:49;13.20;;;3.70;;
71484;SDS011;59300;52.074;4.758;2022-11-21T13:29:05;9.15;;;3.40;;
71484;SDS011;59300;52.074;4.758;2022-11-21T13:42:00;12.02;;;4.35;;
71484;SDS011;59300;52.074;4.758;2022-11-21T13:45:35;12.23;;;4.03;;
71484;SDS011;59300;52.074;4.758;2022-11-21T13:48:52;8.65;;;3.40;;
71484;SDS011;59300;52.074;4.758;2022-11-21T13:52:07;9.95;;;3.90;;
71484;SDS011;59300;52.074;4.758;2022-11-21T13:58:45;11.95;;;4.22;;
71484;SDS011;59300;52.074;4.758;2022-11-21T14:02:04;10.82;;;4.07;;
71484;SDS011;59300;52.074;4.758;2022-11-21T14:12:20;15.10;;;4.95;;
71484;SDS011;59300;52.074;4.758;2022-11-21T14:15:48;10.85;;;4.88;;
71484;SDS011;59300;52.074;4.758;2022-11-21T14:19:37;11.05;;;4.20;;
71484;SDS011;59300;52.074;4.758;2022-11-21T14:29:14;12.07;;;5.13;;
71484;SDS011;59300;52.074;4.758;2022-11-21T14:32:20;10.55;;;4.50;;
71484;SDS011;59300;52.074;4.758;2022-11-21T14:35:26;10.07;;;4.10;;
71484;SDS011;59300;52.074;4.758;2022-11-21T14:38:28;7.32;;;4.03;;
71484;SDS011;59300;52.074;4.758;2022-11-21T14:41:33;10.48;;;4.28;;
71484;SDS011;59300;52.074;4.758;2022-11-21T14:44:37;10.82;;;4.10;;
71484;SDS011;59300;52.074;4.758;2022-11-21T14:47:44;9.55;;;3.65;;
71484;SDS011;59300;52.074;4.758;2022-11-21T14:50:47;7.20;;;3.92;;
71484;SDS011;59300;52.074;4.758;2022-11-21T14:53:49;9.63;;;4.05;;
71484;SDS011;59300;52.074;4.758;2022-11-21T14:56:56;9.95;;;3.63;;
71484;SDS011;59300;52.074;4.758;2022-11-21T15:00:07;11.48;;;4.13;;
71484;SDS011;59300;52.074;4.758;2022-11-21T15:03:36;9.65;;;3.53;;
71484;SDS011;59300;52.074;4.758;2022-11-21T15:06:41;9.07;;;3.33;;
71484;SDS011;59300;52.074;4.758;2022-11-21T15:09:44;6.85;;;3.30;;
71484;SDS011;59300;52.074;4.758;2022-11-21T15:13:06;9.00;;;3.50;;
71484;SDS011;59300;52.074;4.758;2022-11-21T15:16:13;10.02;;;3.42;;
71484;SDS011;59300;52.074;4.758;2022-11-21T15:19:33;16.15;;;3.42;;
71484;SDS011;59300;52.074;4.758;2022-11-21T15:22:35;8.80;;;3.47;;
71484;SDS011;59300;52.074;4.758;2022-11-21T15:25:44;11.77;;;3.33;;
71484;SDS011;59300;52.074;4.758;2022-11-21T15:28:54;14.10;;;3.35;;
71484;SDS011;59300;52.074;4.758;2022-11-21T15:32:09;9.48;;;3.30;;
71484;SDS011;59300;52.074;4.758;2022-11-21T15:39:22;7.50;;;2.90;;
71484;SDS011;59300;52.074;4.758;2022-11-21T15:45:32;8.13;;;3.42;;
71484;SDS011;59300;52.074;4.758;2022-11-21T15:48:34;7.32;;;3.60;;
71484;SDS011;59300;52.074;4.758;2022-11-21T15:55:09;12.55;;;4.15;;
71484;SDS011;59300;52.074;4.758;2022-11-21T15:58:17;13.38;;;4.25;;
71484;SDS011;59300;52.074;4.758;2022-11-21T16:01:19;11.65;;;3.65;;
71484;SDS011;59300;52.074;4.758;2022-11-21T16:04:22;9.10;;;3.47;;
71484;SDS011;59300;52.074;4.758;2022-11-21T16:07:26;12.13;;;3.63;;
71484;SDS011;59300;52.074;4.758;2022-11-21T16:10:27;8.00;;;3.65;;
71484;SDS011;59300;52.074;4.758;2022-11-21T16:13:29;13.60;;;3.53;;
71484;SDS011;59300;52.074;4.758;2022-11-21T16:16:31;7.40;;;3.42;;
71484;SDS011;59300;52.074;4.758;2022-11-21T16:19:34;11.30;;;4.07;;
71484;SDS011;59300;52.074;4.758;2022-11-21T16:22:38;12.77;;;4.10;;
71484;SDS011;59300;52.074;4.758;2022-11-21T16:28:55;9.77;;;3.90;;
71484;SDS011;59300;52.074;4.758;2022-11-21T16:31:58;10.82;;;4.57;;
71484;SDS011;59300;52.074;4.758;2022-11-21T16:34:59;10.85;;;4.72;;
71484;SDS011;59300;52.074;4.758;2022-11-21T16:38:01;15.55;;;5.10;;
71484;SDS011;59300;52.074;4.758;2022-11-21T16:41:03;11.70;;;5.18;;
71484;SDS011;59300;52.074;4.758;2022-11-21T16:44:10;15.85;;;5.75;;
71484;SDS011;59300;52.074;4.758;2022-11-21T16:47:13;12.65;;;5.22;;
71484;SDS011;59300;52.074;4.758;2022-11-21T16:50:15;11.55;;;5.75;;
71484;SDS011;59300;52.074;4.758;2022-11-21T16:53:17;13.32;;;5.38;;
71484;SDS011;59300;52.074;4.758;2022-11-21T16:56:18;12.88;;;5.13;;
71484;SDS011;59300;52.074;4.758;2022-11-21T16:59:20;13.52;;;5.70;;
71484;SDS011;59300;52.074;4.758;2022-11-21T17:02:21;13.88;;;5.15;;
71484;SDS011;59300;52.074;4.758;2022-11-21T17:05:23;14.35;;;5.65;;
71484;SDS011;59300;52.074;4.758;2022-11-21T17:08:26;12.45;;;5.45;;
71484;SDS011;59300;52.074;4.758;2022-11-21T17:11:29;15.63;;;5.60;;
71484;SDS011;59300;52.074;4.758;2022-11-21T17:14:31;14.45;;;6.70;;
71484;SDS011;59300;52.074;4.758;2022-11-21T17:17:33;15.63;;;6.18;;
71484;SDS011;59300;52.074;4.758;2022-11-21T17:20:34;18.85;;;6.38;;
71484;SDS011;59300;52.074;4.758;2022-11-21T17:23:37;11.57;;;5.75;;
71484;SDS011;59300;52.074;4.758;2022-11-21T17:26:40;12.55;;;5.78;;
71484;SDS011;59300;52.074;4.758;2022-11-21T17:29:41;13.52;;;6.57;;
71484;SDS011;59300;52.074;4.758;2022-11-21T17:32:42;17.42;;;5.68;;
71484;SDS011;59300;52.074;4.758;2022-11-21T17:35:44;10.20;;;5.25;;
71484;SDS011;59300;52.074;4.758;2022-11-21T17:38:45;9.75;;;5.75;;
71484;SDS011;59300;52.074;4.758;2022-11-21T17:41:47;12.25;;;5.40;;
71484;SDS011;59300;52.074;4.758;2022-11-21T17:44:49;17.45;;;5.55;;
71484;SDS011;59300;52.074;4.758;2022-11-21T17:47:50;15.70;;;6.18;;
71484;SDS011;59300;52.074;4.758;2022-11-21T17:51:02;10.60;;;5.20;;
71484;SDS011;59300;52.074;4.758;2022-11-21T17:54:06;12.50;;;5.85;;
71484;SDS011;59300;52.074;4.758;2022-11-21T17:57:08;10.23;;;5.45;;
71484;SDS011;59300;52.074;4.758;2022-11-21T18:00:10;11.50;;;5.63;;
71484;SDS011;59300;52.074;4.758;2022-11-21T18:03:12;17.65;;;5.95;;
71484;SDS011;59300;52.074;4.758;2022-11-21T18:06:14;14.20;;;5.85;;
71484;SDS011;59300;52.074;4.758;2022-11-21T18:09:17;22.38;;;5.88;;
71484;SDS011;59300;52.074;4.758;2022-11-21T18:12:19;15.95;;;6.72;;
71484;SDS011;59300;52.074;4.758;2022-11-21T18:15:21;9.63;;;4.93;;
71484;SDS011;59300;52.074;4.758;2022-11-21T18:18:22;12.95;;;5.10;;
71484;SDS011;59300;52.074;4.758;2022-11-21T18:21:25;13.55;;;5.28;;
71484;SDS011;59300;52.074;4.758;2022-11-21T18:24:28;16.55;;;7.65;;
71484;SDS011;59300;52.074;4.758;2022-11-21T18:27:30;11.43;;;4.25;;
71484;SDS011;59300;52.074;4.758;2022-11-21T18:30:31;10.32;;;5.35;;
71484;SDS011;59300;52.074;4.758;2022-11-21T18:33:34;10.57;;;4.53;;
71484;SDS011;59300;52.074;4.758;2022-11-21T18:36:36;12.45;;;4.40;;
71484;SDS011;59300;52.074;4.758;2022-11-21T18:39:37;14.05;;;4.45;;
71484;SDS011;59300;52.074;4.758;2022-11-21T18:42:39;9.57;;;4.75;;
71484;SDS011;59300;52.074;4.758;2022-11-21T18:45:40;6.60;;;4.32;;
71484;SDS011;59300;52.074;4.758;2022-11-21T18:48:42;12.35;;;5.00;;
71484;SDS011;59300;52.074;4.758;2022-11-21T18:52:04;10.57;;;4.63;;
71484;SDS011;59300;52.074;4.758;2022-11-21T18:55:05;10.13;;;4.72;;
71484;SDS011;59300;52.074;4.758;2022-11-21T18:58:07;12.60;;;4.90;;
71484;SDS011;59300;52.074;4.758;2022-11-21T19:04:11;10.07;;;5.03;;
71484;SDS011;59300;52.074;4.758;2022-11-21T19:07:13;11.93;;;4.70;;
71484;SDS011;59300;52.074;4.758;2022-11-21T19:10:14;9.48;;;5.15;;
71484;SDS011;59300;52.074;4.758;2022-11-21T19:13:36;14.68;;;5.25;;
71484;SDS011;59300;52.074;4.758;2022-11-21T19:16:38;13.20;;;5.78;;
71484;SDS011;59300;52.074;4.758;2022-11-21T19:19:40;16.27;;;6.18;;
71484;SDS011;59300;52.074;4.758;2022-11-21T19:22:41;10.65;;;5.90;;
71484;SDS011;59300;52.074;4.758;2022-11-21T19:25:43;11.93;;;6.15;;
71484;SDS011;59300;52.074;4.758;2022-11-21T19:28:44;18.55;;;6.35;;
71484;SDS011;59300;52.074;4.758;2022-11-21T19:31:46;15.80;;;6.43;;
71484;SDS011;59300;52.074;4.758;2022-11-21T19:34:47;15.25;;;6.32;;
71484;SDS011;59300;52.074;4.758;2022-11-21T19:37:49;20.15;;;7.07;;
71484;SDS011;59300;52.074;4.758;2022-11-21T19:40:51;14.43;;;6.25;;
71484;SDS011;59300;52.074;4.758;2022-11-21T19:43:56;13.05;;;6.70;;
71484;SDS011;59300;52.074;4.758;2022-11-21T19:46:59;18.75;;;6.65;;
71484;SDS011;59300;52.074;4.758;2022-11-21T19:50:01;24.35;;;7.72;;